Time;durP1;ratioP1;P1;durP2;ratioP2;P2;SDS_P1;SDS_P2;PMS_P1;PMS_P2;Temp;Humidity;BMP_temperature;BMP_pressure;BME280_temperature;BME280_humidity;BME280_pressure;Samples;Min_cycle;Max_cycle;Signal;HPM_P1;HPM_P2
2024/04/06 00:02:17;;;;;;;5.90;1.60;;;16.90;99.90;;;;;;5013727;28;20512;-77
2024/04/06 00:04:43;;;;;;;5.82;1.60;;;17.00;99.90;;;;;;5026992;28;20049;-77
2024/04/06 00:07:09;;;;;;;5.18;1.60;;;17.00;99.90;;;;;;5010424;28;20030;-75
2024/04/06 00:09:35;;;;;;;4.60;1.52;;;17.00;99.90;;;;;;5020319;28;20022;-76
2024/04/06 00:12:02;;;;;;;5.18;1.60;;;16.90;99.90;;;;;;5009497;28;20045;-76
2024/04/06 00:14:27;;;;;;;4.25;1.45;;;17.00;99.90;;;;;;5010395;28;20025;-77
2024/04/06 00:16:53;;;;;;;7.07;1.90;;;17.00;99.90;;;;;;5010963;28;20305;-76
2024/04/06 00:19:19;;;;;;;12.35;2.22;;;17.00;99.90;;;;;;5021222;28;20117;-75
2024/04/06 00:21:45;;;;;;;5.10;1.85;;;17.00;99.90;;;;;;4995944;28;20045;-76
2024/04/06 00:24:11;;;;;;;3.63;1.50;;;17.00;99.90;;;;;;4996572;28;20068;-75
2024/04/06 00:26:36;;;;;;;4.15;1.27;;;17.00;99.90;;;;;;5010968;28;20069;-76
2024/04/06 00:29:02;;;;;;;4.65;2.15;;;17.00;99.90;;;;;;5014617;28;20044;-76
2024/04/06 00:31:28;;;;;;;4.35;1.35;;;17.10;99.90;;;;;;5023771;28;20053;-75
2024/04/06 00:33:53;;;;;;;5.18;1.98;;;17.00;99.90;;;;;;5013749;28;20040;-76
2024/04/06 00:36:19;;;;;;;3.65;1.80;;;17.00;99.90;;;;;;5011086;28;20056;-75
2024/04/06 00:38:45;;;;;;;6.90;2.05;;;17.00;99.90;;;;;;5011519;28;20036;-75
2024/04/06 00:41:10;;;;;;;6.75;1.77;;;16.90;99.90;;;;;;5008994;28;20042;-75
2024/04/06 00:43:37;;;;;;;7.07;1.90;;;16.90;99.90;;;;;;4993740;28;20041;-74
2024/04/06 00:46:03;;;;;;;7.57;1.77;;;17.00;99.90;;;;;;4982139;28;20026;-77
2024/04/06 00:48:28;;;;;;;7.57;1.80;;;16.80;99.90;;;;;;5025354;28;20486;-75
2024/04/06 00:51:05;;;;;;;4.70;1.38;;;16.80;99.90;;;;;;5001251;28;20455;-74
2024/04/06 00:53:32;;;;;;;5.68;2.13;;;16.80;99.90;;;;;;5025442;28;20033;-74
2024/04/06 00:55:59;;;;;;;4.53;1.60;;;16.80;99.90;;;;;;5021270;28;20074;-76
2024/04/06 00:58:25;;;;;;;4.00;1.60;;;16.80;99.90;;;;;;5048575;28;20185;-76
2024/04/06 01:00:51;;;;;;;4.18;1.60;;;16.90;99.90;;;;;;4999826;28;20494;-75
2024/04/06 01:03:17;;;;;;;7.97;1.92;;;17.00;99.90;;;;;;5025735;28;20036;-73
2024/04/06 01:05:43;;;;;;;6.60;1.50;;;17.00;99.90;;;;;;4996870;28;20029;-76
2024/04/06 01:08:08;;;;;;;7.25;1.55;;;17.00;99.90;;;;;;5014618;28;20032;-75
2024/04/06 01:10:34;;;;;;;6.43;1.95;;;17.00;99.90;;;;;;5013812;28;20032;-75
2024/04/06 01:13:00;;;;;;;6.75;1.63;;;16.90;99.90;;;;;;4997507;28;20037;-76
2024/04/06 01:15:27;;;;;;;7.63;1.70;;;16.90;99.90;;;;;;5012820;28;20087;-74
2024/04/06 01:17:56;;;;;;;7.50;1.63;;;16.80;99.90;;;;;;5016708;28;20468;-74
2024/04/06 01:20:22;;;;;;;7.97;2.25;;;16.70;99.90;;;;;;5014944;28;20393;-74
2024/04/06 01:22:47;;;;;;;11.40;1.65;;;16.70;99.90;;;;;;4999106;28;20084;-75
2024/04/06 01:25:13;;;;;;;9.88;1.48;;;16.70;99.90;;;;;;4989714;28;20062;-75
2024/04/06 01:27:39;;;;;;;8.98;1.83;;;16.60;99.90;;;;;;5019154;28;20478;-76
2024/04/06 01:30:06;;;;;;;5.40;1.60;;;16.80;99.90;;;;;;5000043;28;20034;-75
2024/04/06 01:32:32;;;;;;;12.20;1.73;;;16.70;99.90;;;;;;5015209;28;20080;-74
2024/04/06 01:34:59;;;;;;;9.18;2.17;;;16.70;99.90;;;;;;4998079;28;20077;-76
2024/04/06 01:37:25;;;;;;;6.85;1.80;;;16.80;99.90;;;;;;5004744;28;20454;-77
2024/04/06 01:39:51;;;;;;;6.78;1.92;;;16.70;99.90;;;;;;5014860;28;20085;-75
2024/04/06 01:42:17;;;;;;;7.72;2.60;;;16.80;99.90;;;;;;5011956;28;20038;-75
2024/04/06 01:44:42;;;;;;;6.75;2.33;;;16.70;99.90;;;;;;5015001;28;20175;-74
2024/04/06 01:47:08;;;;;;;9.43;2.92;;;16.70;99.90;;;;;;5015218;28;20026;-75
2024/04/06 01:49:34;;;;;;;13.18;2.75;;;16.90;99.90;;;;;;5015429;28;20034;-78
2024/04/06 01:52:00;;;;;;;7.85;2.75;;;16.80;99.90;;;;;;4993941;28;20398;-75
2024/04/06 01:54:26;;;;;;;9.18;3.10;;;16.70;99.90;;;;;;5027074;28;20022;-75
2024/04/06 01:56:51;;;;;;;9.88;3.00;;;16.60;99.90;;;;;;5025979;28;20025;-74
2024/04/06 01:59:18;;;;;;;10.98;3.30;;;16.60;99.90;;;;;;5025178;28;20057;-75
2024/04/06 02:01:44;;;;;;;10.75;2.85;;;16.50;99.90;;;;;;5001383;28;20065;-75
2024/04/06 02:04:10;;;;;;;11.65;2.45;;;16.50;99.90;;;;;;5012232;28;20469;-76
2024/04/06 02:06:35;;;;;;;7.68;2.65;;;16.70;99.90;;;;;;4994166;28;20441;-76
2024/04/06 02:09:01;;;;;;;10.80;3.10;;;16.70;99.90;;;;;;5012367;28;20034;-76
2024/04/06 02:11:27;;;;;;;9.85;3.00;;;16.60;99.90;;;;;;5017084;28;20058;-76
2024/04/06 02:13:52;;;;;;;8.77;2.80;;;16.50;99.90;;;;;;5015661;28;20056;-75
2024/04/06 02:16:18;;;;;;;10.55;2.47;;;16.60;99.90;;;;;;5031806;28;20037;-76
2024/04/06 02:18:43;;;;;;;6.22;2.17;;;16.60;99.90;;;;;;5032505;28;20150;-75
2024/04/06 02:21:10;;;;;;;5.78;1.98;;;16.50;99.90;;;;;;4996997;28;20613;-74
2024/04/06 02:23:36;;;;;;;7.35;2.60;;;16.40;99.90;;;;;;5015182;28;20084;-75
2024/04/06 02:26:02;;;;;;;6.20;2.28;;;16.50;99.90;;;;;;4986515;28;20026;-79
2024/04/06 02:28:27;;;;;;;7.65;2.03;;;16.40;99.90;;;;;;5012034;28;20451;-75
2024/04/06 02:30:53;;;;;;;6.93;1.90;;;16.50;99.90;;;;;;5012668;28;20026;-74
2024/04/06 02:33:19;;;;;;;8.70;2.28;;;16.40;99.90;;;;;;4999188;28;20030;-76
2024/04/06 02:35:44;;;;;;;8.68;2.65;;;16.50;99.90;;;;;;5007492;28;20116;-75
2024/04/06 02:38:10;;;;;;;8.90;2.65;;;16.50;99.90;;;;;;4996498;28;20030;-77
2024/04/06 02:40:35;;;;;;;5.80;2.22;;;16.40;99.90;;;;;;4984672;28;20045;-77
2024/04/06 02:43:01;;;;;;;8.02;2.90;;;16.40;99.90;;;;;;5030381;28;20037;-75
2024/04/06 02:45:27;;;;;;;12.27;3.17;;;16.30;99.90;;;;;;5016380;28;20040;-76
2024/04/06 02:47:53;;;;;;;9.55;3.25;;;16.40;99.90;;;;;;4983763;28;20079;-76
2024/04/06 02:50:19;;;;;;;10.73;3.65;;;16.40;99.90;;;;;;4995896;28;20025;-75
2024/04/06 02:52:44;;;;;;;12.43;3.42;;;16.40;99.90;;;;;;5032801;28;20040;-75
2024/04/06 02:55:10;;;;;;;10.50;3.50;;;16.40;99.90;;;;;;5002010;28;20032;-75
2024/04/06 02:57:36;;;;;;;6.05;2.42;;;16.50;99.90;;;;;;5017395;28;20040;-75
2024/04/06 03:00:03;;;;;;;8.07;3.30;;;16.50;99.90;;;;;;5000914;28;20033;-76
2024/04/06 03:02:29;;;;;;;8.73;2.83;;;16.50;99.90;;;;;;5019324;28;20041;-76
2024/04/06 03:04:55;;;;;;;8.68;2.95;;;16.60;99.90;;;;;;5021628;28;20501;-77
2024/04/06 03:07:21;;;;;;;7.47;2.30;;;16.60;99.90;;;;;;5014018;28;20385;-75
2024/04/06 03:09:46;;;;;;;4.35;2.53;;;16.60;99.90;;;;;;5025949;28;20540;-75
2024/04/06 03:12:12;;;;;;;5.85;2.40;;;16.70;99.90;;;;;;5014280;28;20041;-76
2024/04/06 03:14:38;;;;;;;8.98;2.42;;;16.60;99.90;;;;;;5000735;28;20026;-75
2024/04/06 03:17:04;;;;;;;4.97;1.90;;;16.70;99.90;;;;;;4990830;28;20056;-76
2024/04/06 03:19:29;;;;;;;7.28;2.45;;;16.70;99.90;;;;;;5009162;28;20084;-75
2024/04/06 03:21:55;;;;;;;9.75;1.85;;;16.70;99.90;;;;;;5013839;28;20092;-75
2024/04/06 03:24:21;;;;;;;6.20;1.95;;;16.70;99.90;;;;;;4970337;28;20026;-74
2024/04/06 03:26:47;;;;;;;9.23;1.65;;;16.60;99.90;;;;;;5019626;28;20098;-75
2024/04/06 03:29:13;;;;;;;4.15;2.17;;;16.70;99.90;;;;;;5027090;28;20041;-75
2024/04/06 03:31:39;;;;;;;6.95;1.98;;;16.60;99.90;;;;;;5004125;28;20034;-75
2024/04/06 03:34:05;;;;;;;9.90;2.45;;;16.60;99.90;;;;;;5002643;28;20437;-74
2024/04/06 03:36:30;;;;;;;3.97;1.67;;;16.60;99.90;;;;;;5017612;28;20528;-75
2024/04/06 03:38:56;;;;;;;5.90;1.65;;;16.60;99.90;;;;;;5022837;28;20530;-75
2024/04/06 03:41:22;;;;;;;4.65;1.88;;;16.70;99.90;;;;;;5014040;28;20044;-75
2024/04/06 03:43:48;;;;;;;6.07;1.80;;;16.70;99.90;;;;;;5012625;28;20042;-75
2024/04/06 03:46:13;;;;;;;5.45;1.95;;;16.60;99.90;;;;;;5014953;28;20032;-75
2024/04/06 03:48:40;;;;;;;7.93;1.83;;;16.70;99.90;;;;;;5012127;28;20026;-74
2024/04/06 03:51:07;;;;;;;6.07;2.10;;;16.70;99.90;;;;;;5001556;28;20033;-77
2024/04/06 03:53:35;;;;;;;7.35;1.75;;;16.60;99.90;;;;;;5014836;28;20032;-76
2024/04/06 03:56:01;;;;;;;7.28;1.83;;;16.60;99.90;;;;;;5011525;28;20076;-75
2024/04/06 03:58:27;;;;;;;7.88;1.75;;;16.70;99.90;;;;;;5012458;28;20034;-74
2024/04/06 04:00:53;;;;;;;6.97;1.85;;;16.60;99.90;;;;;;5036107;28;20040;-75
2024/04/06 04:03:19;;;;;;;8.10;1.88;;;16.70;99.90;;;;;;4987601;28;20077;-75
2024/04/06 04:05:45;;;;;;;6.13;1.70;;;16.60;99.90;;;;;;5037549;28;20130;-75
2024/04/06 04:08:10;;;;;;;4.40;1.60;;;16.70;99.90;;;;;;5036653;28;20129;-75
2024/04/06 04:10:36;;;;;;;8.10;2.17;;;16.70;99.90;;;;;;5027980;28;20054;-76
2024/04/06 04:13:05;;;;;;;7.18;1.38;;;16.70;99.90;;;;;;5030708;28;20112;-76
2024/04/06 04:15:31;;;;;;;6.30;1.75;;;16.70;99.90;;;;;;5030072;28;20379;-76
2024/04/06 04:17:57;;;;;;;3.55;1.45;;;16.60;99.90;;;;;;5024518;28;20029;-76
2024/04/06 04:20:22;;;;;;;11.80;2.65;;;16.60;99.90;;;;;;5029835;28;20032;-78
2024/04/06 04:22:48;;;;;;;8.30;2.20;;;16.60;99.90;;;;;;5011192;28;20044;-76
2024/04/06 04:25:14;;;;;;;6.40;1.60;;;16.50;99.90;;;;;;5021931;28;20030;-77
2024/04/06 04:27:40;;;;;;;4.65;1.80;;;16.50;99.90;;;;;;5018512;28;20021;-75
2024/04/06 04:30:06;;;;;;;4.90;1.65;;;16.50;99.90;;;;;;5002468;28;20108;-75
2024/04/06 04:32:32;;;;;;;5.05;1.70;;;16.50;99.90;;;;;;5025251;28;20045;-75
2024/04/06 04:34:57;;;;;;;5.70;1.73;;;16.50;99.90;;;;;;5028718;28;20087;-76
2024/04/06 04:37:23;;;;;;;7.63;1.55;;;16.60;99.90;;;;;;4995976;28;20041;-76
2024/04/06 04:39:49;;;;;;;9.45;2.10;;;16.70;99.90;;;;;;4997927;28;20026;-76
2024/04/06 04:42:14;;;;;;;10.80;1.75;;;16.60;99.90;;;;;;5016240;28;20042;-75
2024/04/06 04:44:40;;;;;;;4.38;1.52;;;16.60;99.90;;;;;;5000188;28;20048;-75
2024/04/06 04:47:06;;;;;;;2.42;1.65;;;16.60;99.90;;;;;;5014715;28;20040;-76
2024/04/06 04:49:31;;;;;;;6.90;1.83;;;16.50;99.90;;;;;;4999190;28;20065;-75
2024/04/06 04:51:57;;;;;;;4.53;1.83;;;16.60;99.90;;;;;;5017132;28;20079;-76
2024/04/06 04:54:23;;;;;;;6.80;1.58;;;16.50;99.90;;;;;;5019328;28;20026;-78
2024/04/06 04:56:48;;;;;;;6.22;1.98;;;16.50;99.90;;;;;;5027491;28;20086;-76
2024/04/06 04:59:14;;;;;;;5.63;1.80;;;16.60;99.90;;;;;;5032030;28;20807;-75
2024/04/06 05:01:39;;;;;;;4.90;1.88;;;16.50;99.90;;;;;;5013607;28;20037;-77
2024/04/06 05:04:05;;;;;;;4.82;1.83;;;16.50;99.90;;;;;;5018345;28;20038;-77
2024/04/06 05:06:31;;;;;;;6.50;1.77;;;16.60;99.90;;;;;;4997249;28;20414;-76
2024/04/06 05:08:58;;;;;;;8.90;1.40;;;16.50;99.90;;;;;;5012328;28;20099;-75
2024/04/06 05:11:26;;;;;;;4.75;1.27;;;16.70;99.90;;;;;;5012845;28;20045;-77
2024/04/06 05:13:52;;;;;;;4.90;1.67;;;16.60;99.90;;;;;;5016877;28;20025;-76
2024/04/06 05:16:18;;;;;;;7.47;1.60;;;16.50;99.90;;;;;;5013797;28;20035;-76
2024/04/06 05:18:44;;;;;;;4.75;1.88;;;16.40;99.90;;;;;;5012734;28;20481;-75
2024/04/06 05:21:09;;;;;;;4.60;1.60;;;16.50;99.90;;;;;;5013012;28;20030;-74
2024/04/06 05:23:35;;;;;;;4.28;1.67;;;16.50;99.90;;;;;;5016295;28;20040;-75
2024/04/06 05:26:00;;;;;;;5.93;1.75;;;16.70;99.90;;;;;;4996781;28;20026;-75
2024/04/06 05:28:26;;;;;;;5.47;1.70;;;16.70;99.90;;;;;;5026020;28;20053;-77
2024/04/06 05:30:52;;;;;;;6.47;1.98;;;16.70;99.90;;;;;;5012631;28;20084;-75
2024/04/06 05:33:20;;;;;;;12.75;1.83;;;16.50;99.90;;;;;;5016884;28;20811;-75
2024/04/06 05:35:50;;;;;;;5.20;1.77;;;16.50;99.90;;;;;;5018714;28;20100;-75
2024/04/06 05:38:17;;;;;;;4.93;1.70;;;16.50;99.90;;;;;;5016698;28;20018;-75
2024/04/06 05:40:44;;;;;;;3.67;1.38;;;16.50;99.90;;;;;;5026120;28;20045;-75
2024/04/06 05:43:10;;;;;;;6.57;1.30;;;16.60;99.90;;;;;;5012306;28;20038;-75
2024/04/06 05:45:37;;;;;;;4.93;1.70;;;16.70;99.90;;;;;;5013904;28;20033;-76
2024/04/06 05:48:04;;;;;;;5.63;1.50;;;16.60;99.90;;;;;;5015848;28;20030;-77
2024/04/06 05:50:34;;;;;;;4.90;1.23;;;16.70;99.90;;;;;;4996379;28;20482;-75
2024/04/06 05:53:00;;;;;;;6.53;1.27;;;16.70;99.90;;;;;;5012566;28;20112;-74
2024/04/06 05:55:26;;;;;;;1.60;0.95;;;16.80;99.90;;;;;;5016009;28;20124;-77
2024/04/06 05:57:52;;;;;;;6.72;1.88;;;16.80;99.90;;;;;;5011939;28;20407;-75
2024/04/06 06:00:18;;;;;;;3.20;1.38;;;16.90;99.90;;;;;;5018979;28;20025;-74
2024/04/06 06:02:45;;;;;;;4.07;1.27;;;16.90;99.90;;;;;;5015074;28;20026;-77
2024/04/06 06:05:10;;;;;;;8.18;2.10;;;16.90;99.90;;;;;;5017510;28;20033;-76
2024/04/06 06:07:37;;;;;;;12.98;1.67;;;16.90;99.90;;;;;;5016523;28;20052;-75
2024/04/06 06:10:03;;;;;;;3.53;1.40;;;16.90;99.90;;;;;;5036047;28;20074;-76
2024/04/06 06:12:29;;;;;;;6.78;1.58;;;16.90;99.90;;;;;;5029662;28;20041;-75
2024/04/06 06:14:55;;;;;;;4.30;1.60;;;17.00;99.90;;;;;;4998524;28;20109;-77
2024/04/06 06:17:20;;;;;;;7.85;1.50;;;17.00;99.90;;;;;;4999849;28;20040;-76
2024/04/06 06:19:46;;;;;;;6.35;1.80;;;16.90;99.90;;;;;;5013772;28;20064;-75
2024/04/06 06:22:12;;;;;;;3.17;1.42;;;16.90;99.90;;;;;;5022229;28;20033;-78
2024/04/06 06:24:38;;;;;;;5.72;1.73;;;17.00;99.90;;;;;;5014930;28;20033;-76
2024/04/06 06:27:05;;;;;;;9.85;1.60;;;17.00;99.90;;;;;;5018257;28;20036;-75
2024/04/06 06:29:32;;;;;;;6.03;0.90;;;17.10;99.90;;;;;;5010233;28;20577;-78
2024/04/06 06:31:58;;;;;;;7.03;1.70;;;17.20;99.90;;;;;;5012840;28;20037;-75
2024/04/06 06:34:24;;;;;;;3.42;1.25;;;17.20;99.90;;;;;;5000957;28;20132;-77
2024/04/06 06:36:49;;;;;;;5.65;1.25;;;17.30;99.90;;;;;;5000296;28;20089;-75
2024/04/06 06:39:15;;;;;;;4.78;1.15;;;17.30;99.90;;;;;;5001797;28;20394;-75
2024/04/06 06:41:42;;;;;;;3.35;1.38;;;17.50;99.90;;;;;;5010021;28;20033;-75
2024/04/06 06:44:08;;;;;;;5.75;1.67;;;17.40;99.90;;;;;;5013374;28;20068;-77
2024/04/06 06:46:34;;;;;;;6.45;1.60;;;17.50;99.90;;;;;;5000452;28;20061;-75
2024/04/06 06:48:59;;;;;;;8.63;1.27;;;17.40;99.90;;;;;;5021136;28;20029;-76
2024/04/06 06:51:25;;;;;;;7.15;1.48;;;17.50;99.90;;;;;;5038249;28;20063;-75
2024/04/06 06:53:52;;;;;;;5.93;1.63;;;17.60;99.90;;;;;;4996880;28;20026;-75
2024/04/06 06:56:22;;;;;;;9.68;1.80;;;17.60;99.90;;;;;;5016653;28;20409;-75
2024/04/06 06:58:49;;;;;;;7.75;2.10;;;17.80;99.90;;;;;;4999113;28;20029;-77
2024/04/06 07:01:14;;;;;;;7.07;1.48;;;17.90;99.90;;;;;;5015381;28;20045;-75
2024/04/06 07:03:40;;;;;;;7.38;1.35;;;18.00;99.90;;;;;;5020544;28;20037;-75
2024/04/06 07:06:08;;;;;;;4.53;1.50;;;18.00;99.90;;;;;;4994605;28;20064;-75
2024/04/06 07:08:33;;;;;;;7.65;1.35;;;18.10;99.90;;;;;;4998548;28;20026;-75
2024/04/06 07:11:03;;;;;;;4.85;1.58;;;18.20;99.90;;;;;;5012379;28;20037;-76
2024/04/06 07:13:29;;;;;;;5.22;1.40;;;18.00;99.90;;;;;;5011240;28;20375;-77
2024/04/06 07:16:15;;;;;;;5.60;1.48;;;18.10;99.90;;;;;;5012577;28;20021;-75
2024/04/06 07:18:41;;;;;;;3.60;1.48;;;18.30;99.90;;;;;;5030410;28;20175;-78
2024/04/06 07:21:10;;;;;;;3.05;1.30;;;18.40;99.90;;;;;;5010457;28;20022;-76
2024/04/06 07:23:37;;;;;;;9.70;1.60;;;18.50;99.90;;;;;;5020712;28;20040;-77
2024/04/06 07:26:03;;;;;;;6.78;2.03;;;18.70;99.90;;;;;;4995660;28;20040;-78
2024/04/06 07:28:30;;;;;;;3.55;1.10;;;18.70;99.90;;;;;;4999108;28;20055;-78
2024/04/06 07:30:56;;;;;;;5.75;1.65;;;18.60;99.90;;;;;;5014686;28;20112;-76
2024/04/06 07:33:21;;;;;;;6.15;1.95;;;18.70;99.90;;;;;;5011402;28;20034;-76
2024/04/06 07:35:50;;;;;;;4.90;1.17;;;18.80;99.90;;;;;;5021158;28;20054;-77
2024/04/06 07:38:16;;;;;;;3.70;1.33;;;18.80;99.90;;;;;;4997077;28;20030;-77
2024/04/06 07:40:42;;;;;;;2.67;1.40;;;18.70;99.90;;;;;;5023060;28;20037;-76
2024/04/06 07:43:07;;;;;;;5.88;1.60;;;18.80;99.90;;;;;;5014071;28;20045;-77
2024/04/06 07:45:33;;;;;;;5.90;1.75;;;18.70;99.90;;;;;;4998612;28;20025;-78
2024/04/06 07:47:59;;;;;;;8.02;1.23;;;18.90;99.90;;;;;;5020239;28;20026;-78
2024/04/06 07:50:25;;;;;;;3.17;1.38;;;19.00;99.90;;;;;;5010960;28;20049;-75
2024/04/06 07:52:51;;;;;;;2.30;1.13;;;18.80;99.90;;;;;;5013232;28;20041;-76
2024/04/06 07:55:17;;;;;;;2.47;1.27;;;18.60;99.90;;;;;;5031260;28;20428;-78
2024/04/06 07:57:44;;;;;;;5.38;1.17;;;18.80;99.90;;;;;;5006036;28;20048;-77
2024/04/06 08:00:11;;;;;;;4.00;1.17;;;18.90;99.90;;;;;;5022793;28;20026;-76
2024/04/06 08:02:37;;;;;;;3.97;1.45;;;19.00;99.90;;;;;;5012782;28;20413;-77
2024/04/06 08:05:03;;;;;;;6.60;1.42;;;19.00;99.90;;;;;;4998711;28;20033;-78
2024/04/06 08:07:31;;;;;;;6.35;1.73;;;19.00;99.90;;;;;;5015486;28;20437;-80
2024/04/06 08:09:58;;;;;;;2.90;1.10;;;18.90;99.90;;;;;;5013963;28;20046;-77
2024/04/06 08:12:27;;;;;;;8.10;1.25;;;19.00;99.90;;;;;;5018572;28;20060;-79
2024/04/06 08:14:53;;;;;;;6.38;1.30;;;19.10;99.90;;;;;;5002648;28;20026;-76
2024/04/06 08:17:19;;;;;;;3.80;0.98;;;19.10;99.90;;;;;;5033895;28;20021;-80
2024/04/06 08:19:45;;;;;;;2.67;1.00;;;19.20;99.90;;;;;;5034581;28;20056;-77
2024/04/06 08:22:11;;;;;;;8.45;1.50;;;19.20;99.90;;;;;;5014218;28;20541;-80
2024/04/06 08:24:38;;;;;;;3.15;1.00;;;19.30;99.90;;;;;;5007735;28;20108;-77
2024/04/06 08:27:05;;;;;;;3.25;0.88;;;19.30;99.90;;;;;;4984860;28;20095;-77
2024/04/06 08:29:31;;;;;;;3.40;1.05;;;19.30;99.90;;;;;;5013979;28;20033;-79
2024/04/06 08:31:57;;;;;;;4.60;1.50;;;19.30;99.90;;;;;;5025973;28;20030;-78
2024/04/06 08:34:22;;;;;;;4.07;1.17;;;19.50;99.90;;;;;;5035751;28;20021;-77
2024/04/06 08:36:48;;;;;;;3.35;1.42;;;19.70;99.90;;;;;;5024803;28;20078;-78
2024/04/06 08:39:13;;;;;;;3.15;1.20;;;19.80;99.90;;;;;;4985061;28;20031;-80
2024/04/06 08:41:45;;;;;;;7.68;1.58;;;19.80;99.90;;;;;;4984415;28;20034;-79
2024/04/06 08:44:16;;;;;;;2.97;1.23;;;20.00;99.90;;;;;;4989359;28;20049;-78
2024/04/06 08:46:41;;;;;;;8.65;1.13;;;20.20;99.90;;;;;;5014056;28;20121;-76
2024/04/06 08:49:13;;;;;;;6.90;1.05;;;20.20;99.90;;;;;;4993507;28;20121;-78
2024/04/06 08:51:41;;;;;;;6.40;1.73;;;20.40;99.90;;;;;;5006717;28;20042;-76
2024/04/06 08:54:07;;;;;;;3.33;1.00;;;20.50;99.90;;;;;;5006062;28;20076;-77
2024/04/06 08:56:33;;;;;;;9.90;1.20;;;20.70;99.90;;;;;;5002247;28;20029;-78
2024/04/06 08:59:01;;;;;;;2.35;1.10;;;20.90;99.80;;;;;;5010499;28;20022;-78
2024/04/06 09:01:27;;;;;;;2.97;0.90;;;21.10;99.70;;;;;;5003863;28;20030;-77
2024/04/06 09:03:53;;;;;;;3.20;1.70;;;21.20;98.90;;;;;;4990915;28;20037;-76
2024/04/06 09:06:18;;;;;;;6.40;1.60;;;21.40;98.60;;;;;;5012530;28;20022;-76
2024/04/06 09:08:45;;;;;;;1.77;1.00;;;21.50;98.30;;;;;;5014272;28;20036;-75
2024/04/06 09:11:12;;;;;;;4.43;1.05;;;21.60;97.80;;;;;;5011876;28;20035;-77
2024/04/06 09:13:44;;;;;;;2.53;1.23;;;21.70;97.90;;;;;;5007972;28;20026;-76
2024/04/06 09:16:10;;;;;;;3.83;1.13;;;21.90;97.00;;;;;;5021011;28;20030;-75
2024/04/06 09:18:38;;;;;;;2.97;1.05;;;22.20;96.50;;;;;;5031190;28;20034;-78
2024/04/06 09:21:07;;;;;;;1.70;0.95;;;22.30;95.90;;;;;;5027739;28;20028;-77
2024/04/06 09:23:33;;;;;;;6.93;1.45;;;22.20;95.90;;;;;;5006529;28;20034;-78
2024/04/06 09:26:00;;;;;;;1.83;0.90;;;22.20;96.00;;;;;;4977905;28;20077;-78
2024/04/06 09:28:27;;;;;;;1.80;0.70;;;22.10;95.70;;;;;;5007739;28;20096;-80
2024/04/06 09:30:57;;;;;;;3.67;0.80;;;22.20;95.20;;;;;;4997619;28;20027;-78
2024/04/06 09:33:24;;;;;;;4.00;1.30;;;22.30;95.10;;;;;;5001009;28;20741;-76
2024/04/06 09:35:51;;;;;;;2.70;1.27;;;22.40;95.00;;;;;;5010944;28;20453;-76
2024/04/06 09:38:17;;;;;;;3.70;1.00;;;22.40;95.60;;;;;;5013092;28;20084;-78
2024/04/06 09:40:44;;;;;;;8.27;1.23;;;22.40;94.90;;;;;;5012495;28;20422;-78
2024/04/06 09:43:11;;;;;;;2.35;1.20;;;22.30;94.90;;;;;;5015403;28;20037;-77
2024/04/06 09:45:37;;;;;;;3.40;1.38;;;22.50;95.00;;;;;;5011432;28;20095;-77
2024/04/06 09:48:05;;;;;;;2.55;1.00;;;23.00;94.30;;;;;;4993372;28;20045;-77
2024/04/06 09:50:32;;;;;;;1.83;1.10;;;23.20;94.00;;;;;;5015403;28;20035;-76
2024/04/06 09:52:59;;;;;;;3.28;1.20;;;23.40;93.60;;;;;;5019139;28;20029;-77
2024/04/06 09:55:28;;;;;;;2.90;1.25;;;23.40;93.30;;;;;;5027398;28;20021;-77
2024/04/06 09:57:55;;;;;;;4.35;1.02;;;23.50;93.40;;;;;;5013782;28;20036;-76
2024/04/06 10:00:21;;;;;;;6.60;1.38;;;23.90;93.00;;;;;;5015693;28;20022;-78
2024/04/06 10:02:50;;;;;;;3.03;1.10;;;24.00;92.70;;;;;;5012517;28;20045;-76
2024/04/06 10:05:16;;;;;;;1.65;0.70;;;24.20;92.20;;;;;;5030198;28;20025;-77
2024/04/06 10:07:52;;;;;;;0.98;0.63;;;24.20;91.90;;;;;;5013597;28;20435;-76
2024/04/06 10:10:18;;;;;;;5.00;1.23;;;24.20;91.80;;;;;;5016363;28;20029;-75
2024/04/06 10:12:48;;;;;;;2.45;0.95;;;24.40;92.20;;;;;;4994854;28;20406;-78
2024/04/06 10:15:18;;;;;;;3.95;1.20;;;24.50;91.40;;;;;;5026394;28;20108;-78
2024/04/06 10:17:53;;;;;;;2.70;0.93;;;24.60;91.30;;;;;;4995791;28;20415;-77
2024/04/06 10:20:24;;;;;;;7.47;0.98;;;24.70;90.90;;;;;;5020867;28;20113;-77
2024/04/06 10:22:55;;;;;;;2.28;0.75;;;24.70;90.30;;;;;;5012637;28;20524;-77
2024/04/06 10:25:30;;;;;;;3.22;1.52;;;24.80;90.60;;;;;;5024700;28;20100;-77
2024/04/06 10:28:04;;;;;;;6.35;1.35;;;25.10;90.00;;;;;;5013726;28;20025;-78
2024/04/06 10:30:31;;;;;;;3.72;1.20;;;25.20;89.90;;;;;;5013159;28;20117;-77
2024/04/06 10:32:57;;;;;;;3.30;0.95;;;25.50;88.70;;;;;;5028657;28;20033;-76
2024/04/06 10:35:24;;;;;;;4.97;1.17;;;25.40;88.20;;;;;;5003148;28;20839;-75
2024/04/06 10:37:50;;;;;;;3.10;1.02;;;25.40;88.10;;;;;;5008845;28;20093;-77
2024/04/06 10:40:16;;;;;;;4.07;0.82;;;25.90;87.40;;;;;;4992231;28;20036;-77
2024/04/06 10:42:41;;;;;;;4.10;0.82;;;26.30;85.60;;;;;;5006982;28;20117;-77
2024/04/06 10:45:11;;;;;;;1.50;0.85;;;26.70;83.80;;;;;;5006429;28;20042;-77
2024/04/06 10:47:36;;;;;;;1.80;1.00;;;26.30;84.00;;;;;;5007189;28;20057;-78
2024/04/06 10:50:02;;;;;;;4.00;1.55;;;26.60;83.30;;;;;;4985186;28;20467;-76
2024/04/06 10:52:29;;;;;;;2.70;0.80;;;27.30;82.90;;;;;;4989796;28;20033;-78
2024/04/06 10:54:55;;;;;;;5.82;1.00;;;27.40;81.80;;;;;;5001714;28;20124;-77
2024/04/06 10:57:22;;;;;;;3.88;1.02;;;27.50;81.90;;;;;;4989004;28;20033;-76
2024/04/06 10:59:48;;;;;;;3.03;1.20;;;27.50;80.20;;;;;;5007993;28;20053;-77
2024/04/06 11:02:15;;;;;;;4.68;1.20;;;27.70;80.00;;;;;;5005694;28;20034;-75
2024/04/06 11:04:41;;;;;;;4.60;1.00;;;27.70;79.10;;;;;;4997629;28;20133;-72
2024/04/06 11:07:07;;;;;;;5.47;0.82;;;27.70;78.40;;;;;;4990798;28;20033;-73
2024/04/06 11:09:35;;;;;;;4.35;1.08;;;27.20;78.20;;;;;;4986829;28;20034;-75
2024/04/06 11:12:02;;;;;;;3.65;1.02;;;27.00;79.00;;;;;;4999220;28;20022;-78
2024/04/06 11:14:29;;;;;;;8.25;1.08;;;27.30;78.80;;;;;;4997287;28;20352;-75
2024/04/06 11:16:55;;;;;;;2.47;0.80;;;27.60;78.80;;;;;;5006466;28;20026;-74
2024/04/06 11:19:24;;;;;;;4.38;1.08;;;27.80;77.90;;;;;;5002734;28;20081;-75
2024/04/06 11:21:50;;;;;;;5.10;0.77;;;27.60;78.70;;;;;;5005827;28;20038;-76
2024/04/06 11:24:16;;;;;;;4.25;0.95;;;27.70;77.00;;;;;;4997690;28;20105;-74
2024/04/06 11:26:41;;;;;;;4.85;1.02;;;27.90;77.60;;;;;;5004447;28;20029;-74
2024/04/06 11:29:10;;;;;;;4.65;1.30;;;27.70;77.50;;;;;;4987336;28;20034;-73
2024/04/06 11:31:36;;;;;;;2.42;0.98;;;27.30;77.00;;;;;;4990493;28;20026;-73
2024/04/06 11:34:02;;;;;;;5.22;1.10;;;27.30;77.50;;;;;;5011576;28;20037;-73
2024/04/06 11:36:28;;;;;;;2.90;1.27;;;27.40;76.50;;;;;;5005151;28;20061;-73
2024/04/06 11:38:55;;;;;;;6.63;2.60;;;27.10;77.20;;;;;;5004374;28;20034;-74
2024/04/06 11:41:21;;;;;;;3.17;1.48;;;27.10;77.30;;;;;;5005344;28;20022;-75
2024/04/06 11:43:47;;;;;;;1.50;0.85;;;27.10;77.30;;;;;;4983779;28;20558;-76
2024/04/06 11:46:13;;;;;;;6.60;1.33;;;27.00;77.00;;;;;;4987352;28;20030;-74
2024/04/06 11:48:39;;;;;;;4.20;1.48;;;26.80;78.40;;;;;;4995304;28;20033;-74
2024/04/06 11:51:04;;;;;;;3.15;1.15;;;26.80;78.70;;;;;;4992374;28;20034;-75
2024/04/06 11:53:34;;;;;;;1.70;0.90;;;26.60;78.20;;;;;;4997958;28;20037;-74
2024/04/06 11:56:01;;;;;;;3.83;1.20;;;26.30;78.60;;;;;;5027029;28;20022;-72
2024/04/06 11:58:27;;;;;;;8.18;1.15;;;26.30;79.50;;;;;;5012845;28;20026;-76
2024/04/06 12:00:53;;;;;;;3.20;1.00;;;26.10;80.00;;;;;;4997244;28;20026;-75
2024/04/06 12:03:19;;;;;;;3.50;1.48;;;26.20;80.50;;;;;;4984014;28;20026;-75
2024/04/06 12:05:45;;;;;;;15.35;1.30;;;26.00;80.50;;;;;;5003993;28;20034;-76
2024/04/06 12:08:11;;;;;;;5.32;1.30;;;25.90;80.90;;;;;;5003999;28;20057;-73
2024/04/06 12:10:36;;;;;;;8.75;1.13;;;25.70;81.50;;;;;;4987510;28;20125;-73
2024/04/06 12:13:02;;;;;;;2.88;1.15;;;25.60;81.40;;;;;;4992955;28;20125;-75
2024/04/06 12:15:28;;;;;;;5.88;1.33;;;25.80;80.60;;;;;;5017899;28;20033;-74
2024/04/06 12:17:53;;;;;;;4.65;1.10;;;25.90;79.30;;;;;;5004533;28;20372;-73
2024/04/06 12:20:19;;;;;;;3.03;1.20;;;26.10;79.80;;;;;;5016196;28;20041;-76
2024/04/06 12:22:45;;;;;;;4.03;1.08;;;26.20;80.60;;;;;;5013553;28;20038;-75
2024/04/06 12:25:10;;;;;;;7.05;1.40;;;26.30;78.90;;;;;;5018081;28;20486;-74
2024/04/06 12:27:36;;;;;;;4.03;0.80;;;26.60;78.60;;;;;;4997489;28;20494;-76
2024/04/06 12:30:04;;;;;;;9.63;1.52;;;27.00;78.70;;;;;;5007479;28;20030;-77
2024/04/06 12:32:30;;;;;;;6.00;1.00;;;27.00;78.20;;;;;;4993877;28;20033;-75
2024/04/06 12:34:56;;;;;;;4.82;0.88;;;27.30;78.80;;;;;;4996827;28;20418;-76
2024/04/06 12:37:21;;;;;;;3.13;1.02;;;27.50;77.70;;;;;;5030596;28;20031;-76
2024/04/06 12:39:47;;;;;;;4.38;1.20;;;27.70;76.70;;;;;;4998519;28;20069;-75
2024/04/06 12:42:13;;;;;;;3.40;1.08;;;27.90;77.00;;;;;;4996674;28;20041;-75